sensor_id;sensor_type;location;lat;lon;timestamp;P1;durP1;ratioP1;P2;durP2;ratioP2
82526;SDS011;72188;41.974;21.456;2024-01-10T00:00:03;10.77;;;5.70;;
82526;SDS011;72188;41.974;21.456;2024-01-10T00:02:29;11.63;;;6.78;;
82526;SDS011;72188;41.974;21.456;2024-01-10T00:04:55;10.98;;;7.15;;
82526;SDS011;72188;41.974;21.456;2024-01-10T00:07:21;12.07;;;7.45;;
82526;SDS011;72188;41.974;21.456;2024-01-10T00:09:47;14.02;;;6.78;;
82526;SDS011;72188;41.974;21.456;2024-01-10T00:12:13;10.68;;;6.20;;
82526;SDS011;72188;41.974;21.456;2024-01-10T00:14:39;10.30;;;7.05;;
82526;SDS011;72188;41.974;21.456;2024-01-10T00:17:05;9.60;;;6.43;;
82526;SDS011;72188;41.974;21.456;2024-01-10T00:19:32;10.18;;;6.10;;
82526;SDS011;72188;41.974;21.456;2024-01-10T00:21:58;8.98;;;5.75;;
82526;SDS011;72188;41.974;21.456;2024-01-10T00:24:24;10.15;;;6.10;;
82526;SDS011;72188;41.974;21.456;2024-01-10T00:26:50;8.88;;;6.10;;
82526;SDS011;72188;41.974;21.456;2024-01-10T00:29:16;10.05;;;6.45;;
82526;SDS011;72188;41.974;21.456;2024-01-10T00:31:42;10.18;;;6.28;;
82526;SDS011;72188;41.974;21.456;2024-01-10T00:34:08;8.07;;;6.03;;
82526;SDS011;72188;41.974;21.456;2024-01-10T00:36:34;8.65;;;5.97;;
82526;SDS011;72188;41.974;21.456;2024-01-10T00:39:00;11.32;;;6.95;;
82526;SDS011;72188;41.974;21.456;2024-01-10T00:41:27;7.25;;;4.57;;
82526;SDS011;72188;41.974;21.456;2024-01-10T00:43:53;8.63;;;5.03;;
82526;SDS011;72188;41.974;21.456;2024-01-10T00:46:19;10.23;;;6.95;;
82526;SDS011;72188;41.974;21.456;2024-01-10T00:48:45;10.75;;;6.35;;
82526;SDS011;72188;41.974;21.456;2024-01-10T00:51:11;8.02;;;6.00;;
82526;SDS011;72188;41.974;21.456;2024-01-10T00:53:37;11.25;;;6.72;;
82526;SDS011;72188;41.974;21.456;2024-01-10T00:56:04;7.15;;;4.28;;
82526;SDS011;72188;41.974;21.456;2024-01-10T00:58:30;9.00;;;5.13;;
82526;SDS011;72188;41.974;21.456;2024-01-10T01:00:56;7.20;;;5.00;;
82526;SDS011;72188;41.974;21.456;2024-01-10T01:03:22;8.82;;;5.63;;
82526;SDS011;72188;41.974;21.456;2024-01-10T01:05:48;9.65;;;5.70;;
82526;SDS011;72188;41.974;21.456;2024-01-10T01:08:14;9.52;;;5.93;;
82526;SDS011;72188;41.974;21.456;2024-01-10T01:10:40;8.48;;;6.32;;
82526;SDS011;72188;41.974;21.456;2024-01-10T01:13:07;10.88;;;6.00;;
82526;SDS011;72188;41.974;21.456;2024-01-10T01:15:33;10.43;;;6.35;;
82526;SDS011;72188;41.974;21.456;2024-01-10T01:17:59;9.90;;;5.95;;
82526;SDS011;72188;41.974;21.456;2024-01-10T01:20:25;9.02;;;5.10;;
82526;SDS011;72188;41.974;21.456;2024-01-10T01:22:51;10.25;;;6.15;;
82526;SDS011;72188;41.974;21.456;2024-01-10T01:25:18;10.07;;;6.57;;
82526;SDS011;72188;41.974;21.456;2024-01-10T01:27:44;10.52;;;6.10;;
82526;SDS011;72188;41.974;21.456;2024-01-10T01:30:10;8.02;;;5.88;;
82526;SDS011;72188;41.974;21.456;2024-01-10T01:32:37;10.13;;;5.75;;
82526;SDS011;72188;41.974;21.456;2024-01-10T01:35:03;5.55;;;4.03;;
82526;SDS011;72188;41.974;21.456;2024-01-10T01:37:29;9.82;;;6.30;;
82526;SDS011;72188;41.974;21.456;2024-01-10T01:39:55;10.60;;;5.93;;
82526;SDS011;72188;41.974;21.456;2024-01-10T01:42:22;6.88;;;4.57;;
82526;SDS011;72188;41.974;21.456;2024-01-10T01:44:48;10.70;;;6.10;;
82526;SDS011;72188;41.974;21.456;2024-01-10T01:47:15;7.65;;;5.25;;
82526;SDS011;72188;41.974;21.456;2024-01-10T01:49:41;9.50;;;5.78;;
82526;SDS011;72188;41.974;21.456;2024-01-10T01:52:08;5.55;;;4.13;;
82526;SDS011;72188;41.974;21.456;2024-01-10T01:54:34;5.97;;;3.90;;
82526;SDS011;72188;41.974;21.456;2024-01-10T01:57:00;9.50;;;5.55;;
82526;SDS011;72188;41.974;21.456;2024-01-10T01:59:27;10.15;;;6.07;;
82526;SDS011;72188;41.974;21.456;2024-01-10T02:01:54;11.32;;;6.55;;
82526;SDS011;72188;41.974;21.456;2024-01-10T02:04:21;10.23;;;6.15;;
82526;SDS011;72188;41.974;21.456;2024-01-10T02:06:48;9.88;;;5.88;;
82526;SDS011;72188;41.974;21.456;2024-01-10T02:09:14;8.52;;;5.90;;
82526;SDS011;72188;41.974;21.456;2024-01-10T02:11:40;9.55;;;6.28;;
82526;SDS011;72188;41.974;21.456;2024-01-10T02:14:06;11.65;;;6.57;;
82526;SDS011;72188;41.974;21.456;2024-01-10T02:16:32;14.05;;;8.32;;
82526;SDS011;72188;41.974;21.456;2024-01-10T02:18:58;14.60;;;8.13;;
82526;SDS011;72188;41.974;21.456;2024-01-10T02:21:26;9.88;;;6.70;;
82526;SDS011;72188;41.974;21.456;2024-01-10T02:23:52;8.20;;;5.53;;
82526;SDS011;72188;41.974;21.456;2024-01-10T02:26:18;8.80;;;6.47;;
82526;SDS011;72188;41.974;21.456;2024-01-10T02:28:44;10.45;;;6.82;;
82526;SDS011;72188;41.974;21.456;2024-01-10T02:31:10;10.27;;;6.13;;
82526;SDS011;72188;41.974;21.456;2024-01-10T02:33:36;11.45;;;6.93;;
82526;SDS011;72188;41.974;21.456;2024-01-10T02:36:02;9.20;;;5.68;;
82526;SDS011;72188;41.974;21.456;2024-01-10T02:38:28;8.15;;;5.20;;
82526;SDS011;72188;41.974;21.456;2024-01-10T02:40:54;9.57;;;6.43;;
82526;SDS011;72188;41.974;21.456;2024-01-10T02:43:21;9.38;;;5.72;;
82526;SDS011;72188;41.974;21.456;2024-01-10T02:45:47;8.98;;;6.15;;
82526;SDS011;72188;41.974;21.456;2024-01-10T02:48:13;9.45;;;6.50;;
82526;SDS011;72188;41.974;21.456;2024-01-10T02:50:39;5.72;;;4.03;;
82526;SDS011;72188;41.974;21.456;2024-01-10T02:53:06;5.10;;;3.38;;
82526;SDS011;72188;41.974;21.456;2024-01-10T02:55:32;7.57;;;3.88;;
82526;SDS011;72188;41.974;21.456;2024-01-10T02:57:58;7.05;;;5.28;;
82526;SDS011;72188;41.974;21.456;2024-01-10T03:00:24;8.13;;;5.35;;
82526;SDS011;72188;41.974;21.456;2024-01-10T03:02:50;8.32;;;5.25;;
82526;SDS011;72188;41.974;21.456;2024-01-10T03:05:16;11.73;;;7.15;;
82526;SDS011;72188;41.974;21.456;2024-01-10T03:07:42;9.63;;;6.13;;
82526;SDS011;72188;41.974;21.456;2024-01-10T03:10:08;10.25;;;6.88;;
82526;SDS011;72188;41.974;21.456;2024-01-10T03:12:34;9.15;;;5.72;;
82526;SDS011;72188;41.974;21.456;2024-01-10T03:17:28;9.43;;;6.32;;
82526;SDS011;72188;41.974;21.456;2024-01-10T03:19:54;10.95;;;7.00;;
82526;SDS011;72188;41.974;21.456;2024-01-10T03:22:20;8.48;;;5.53;;
82526;SDS011;72188;41.974;21.456;2024-01-10T03:24:46;9.63;;;6.53;;
82526;SDS011;72188;41.974;21.456;2024-01-10T03:27:12;10.27;;;6.03;;
82526;SDS011;72188;41.974;21.456;2024-01-10T03:29:38;9.98;;;6.13;;
82526;SDS011;72188;41.974;21.456;2024-01-10T03:32:05;9.50;;;5.80;;
82526;SDS011;72188;41.974;21.456;2024-01-10T03:34:31;12.55;;;7.00;;
82526;SDS011;72188;41.974;21.456;2024-01-10T03:36:57;4.82;;;3.38;;
82526;SDS011;72188;41.974;21.456;2024-01-10T03:39:23;8.88;;;5.93;;
82526;SDS011;72188;41.974;21.456;2024-01-10T03:41:49;13.25;;;7.15;;
82526;SDS011;72188;41.974;21.456;2024-01-10T03:44:16;10.85;;;6.90;;
82526;SDS011;72188;41.974;21.456;2024-01-10T03:46:42;9.02;;;6.43;;
82526;SDS011;72188;41.974;21.456;2024-01-10T03:49:08;12.40;;;8.10;;
82526;SDS011;72188;41.974;21.456;2024-01-10T03:51:34;10.13;;;6.82;;
82526;SDS011;72188;41.974;21.456;2024-01-10T03:54:00;9.80;;;6.07;;
82526;SDS011;72188;41.974;21.456;2024-01-10T03:56:26;9.25;;;6.13;;
82526;SDS011;72188;41.974;21.456;2024-01-10T03:58:52;10.25;;;6.07;;
82526;SDS011;72188;41.974;21.456;2024-01-10T04:01:21;10.88;;;6.90;;
82526;SDS011;72188;41.974;21.456;2024-01-10T04:03:48;9.23;;;6.00;;
82526;SDS011;72188;41.974;21.456;2024-01-10T04:06:14;7.18;;;4.35;;
82526;SDS011;72188;41.974;21.456;2024-01-10T04:08:41;6.35;;;4.07;;
82526;SDS011;72188;41.974;21.456;2024-01-10T04:11:07;6.45;;;5.03;;
82526;SDS011;72188;41.974;21.456;2024-01-10T04:13:34;7.35;;;5.05;;
82526;SDS011;72188;41.974;21.456;2024-01-10T04:16:00;10.43;;;6.95;;
82526;SDS011;72188;41.974;21.456;2024-01-10T04:18:26;13.95;;;7.25;;
82526;SDS011;72188;41.974;21.456;2024-01-10T04:20:52;10.90;;;7.47;;
82526;SDS011;72188;41.974;21.456;2024-01-10T04:23:18;12.30;;;7.43;;
82526;SDS011;72188;41.974;21.456;2024-01-10T04:25:44;9.52;;;7.57;;
82526;SDS011;72188;41.974;21.456;2024-01-10T04:28:10;9.13;;;6.43;;
82526;SDS011;72188;41.974;21.456;2024-01-10T04:30:36;10.60;;;6.10;;
82526;SDS011;72188;41.974;21.456;2024-01-10T04:33:02;11.70;;;6.18;;
82526;SDS011;72188;41.974;21.456;2024-01-10T04:35:28;11.10;;;6.97;;
82526;SDS011;72188;41.974;21.456;2024-01-10T04:37:54;10.70;;;6.82;;
82526;SDS011;72188;41.974;21.456;2024-01-10T04:40:20;10.77;;;6.30;;
82526;SDS011;72188;41.974;21.456;2024-01-10T04:42:47;10.65;;;7.47;;
82526;SDS011;72188;41.974;21.456;2024-01-10T04:45:14;11.82;;;7.28;;
82526;SDS011;72188;41.974;21.456;2024-01-10T04:47:40;10.88;;;6.85;;
82526;SDS011;72188;41.974;21.456;2024-01-10T04:50:06;12.88;;;7.18;;
82526;SDS011;72188;41.974;21.456;2024-01-10T04:52:32;9.25;;;6.65;;
82526;SDS011;72188;41.974;21.456;2024-01-10T04:54:58;10.65;;;6.97;;
82526;SDS011;72188;41.974;21.456;2024-01-10T04:57:25;10.65;;;7.22;;
82526;SDS011;72188;41.974;21.456;2024-01-10T04:59:51;8.52;;;5.63;;
82526;SDS011;72188;41.974;21.456;2024-01-10T05:02:17;11.13;;;5.75;;
82526;SDS011;72188;41.974;21.456;2024-01-10T05:04:44;10.73;;;6.72;;
82526;SDS011;72188;41.974;21.456;2024-01-10T05:07:10;9.98;;;6.63;;
82526;SDS011;72188;41.974;21.456;2024-01-10T05:09:36;10.05;;;6.05;;
82526;SDS011;72188;41.974;21.456;2024-01-10T05:12:02;11.77;;;6.95;;
82526;SDS011;72188;41.974;21.456;2024-01-10T05:14:28;11.70;;;6.53;;
82526;SDS011;72188;41.974;21.456;2024-01-10T05:16:54;10.55;;;6.22;;
82526;SDS011;72188;41.974;21.456;2024-01-10T05:19:20;13.32;;;8.48;;
82526;SDS011;72188;41.974;21.456;2024-01-10T05:21:47;4.60;;;3.33;;
82526;SDS011;72188;41.974;21.456;2024-01-10T05:24:13;11.05;;;6.95;;
82526;SDS011;72188;41.974;21.456;2024-01-10T05:26:39;5.70;;;4.50;;
82526;SDS011;72188;41.974;21.456;2024-01-10T05:29:05;6.43;;;4.40;;
82526;SDS011;72188;41.974;21.456;2024-01-10T05:31:32;7.25;;;5.22;;
82526;SDS011;72188;41.974;21.456;2024-01-10T05:33:58;13.38;;;7.40;;
82526;SDS011;72188;41.974;21.456;2024-01-10T05:36:24;11.00;;;6.72;;
82526;SDS011;72188;41.974;21.456;2024-01-10T05:38:50;15.93;;;8.15;;
82526;SDS011;72188;41.974;21.456;2024-01-10T05:41:17;10.70;;;7.32;;
82526;SDS011;72188;41.974;21.456;2024-01-10T05:43:43;13.25;;;7.07;;
82526;SDS011;72188;41.974;21.456;2024-01-10T05:46:09;10.73;;;6.72;;
82526;SDS011;72188;41.974;21.456;2024-01-10T05:48:35;15.02;;;6.95;;
82526;SDS011;72188;41.974;21.456;2024-01-10T05:51:02;10.30;;;6.22;;
82526;SDS011;72188;41.974;21.456;2024-01-10T05:53:28;8.55;;;5.55;;
82526;SDS011;72188;41.974;21.456;2024-01-10T05:55:54;14.75;;;5.32;;
82526;SDS011;72188;41.974;21.456;2024-01-10T05:58:20;21.60;;;11.27;;
82526;SDS011;72188;41.974;21.456;2024-01-10T06:00:46;24.60;;;12.07;;
82526;SDS011;72188;41.974;21.456;2024-01-10T06:03:12;13.18;;;7.35;;
82526;SDS011;72188;41.974;21.456;2024-01-10T06:05:38;13.85;;;7.68;;
82526;SDS011;72188;41.974;21.456;2024-01-10T06:08:04;30.30;;;14.68;;
82526;SDS011;72188;41.974;21.456;2024-01-10T06:10:31;15.40;;;9.38;;
82526;SDS011;72188;41.974;21.456;2024-01-10T06:12:57;16.95;;;9.38;;
82526;SDS011;72188;41.974;21.456;2024-01-10T06:15:23;16.42;;;10.70;;
82526;SDS011;72188;41.974;21.456;2024-01-10T06:17:50;18.17;;;11.13;;
82526;SDS011;72188;41.974;21.456;2024-01-10T06:20:16;21.45;;;10.32;;
82526;SDS011;72188;41.974;21.456;2024-01-10T06:22:42;16.70;;;10.07;;
82526;SDS011;72188;41.974;21.456;2024-01-10T06:25:08;17.38;;;8.68;;
82526;SDS011;72188;41.974;21.456;2024-01-10T06:27:34;12.35;;;8.40;;
82526;SDS011;72188;41.974;21.456;2024-01-10T06:30:00;18.98;;;10.13;;
82526;SDS011;72188;41.974;21.456;2024-01-10T06:32:26;21.05;;;8.88;;
82526;SDS011;72188;41.974;21.456;2024-01-10T06:34:52;20.63;;;10.35;;
82526;SDS011;72188;41.974;21.456;2024-01-10T06:37:18;16.63;;;9.50;;
82526;SDS011;72188;41.974;21.456;2024-01-10T06:39:44;14.60;;;8.25;;
82526;SDS011;72188;41.974;21.456;2024-01-10T06:42:11;12.82;;;6.55;;
82526;SDS011;72188;41.974;21.456;2024-01-10T06:44:37;13.68;;;8.20;;
82526;SDS011;72188;41.974;21.456;2024-01-10T06:47:03;16.02;;;8.35;;
82526;SDS011;72188;41.974;21.456;2024-01-10T06:49:29;12.23;;;7.82;;
82526;SDS011;72188;41.974;21.456;2024-01-10T06:51:55;9.70;;;5.60;;
82526;SDS011;72188;41.974;21.456;2024-01-10T06:54:21;9.60;;;6.20;;
82526;SDS011;72188;41.974;21.456;2024-01-10T06:56:57;10.18;;;6.32;;
82526;SDS011;72188;41.974;21.456;2024-01-10T06:59:23;9.15;;;5.72;;
82526;SDS011;72188;41.974;21.456;2024-01-10T07:01:52;10.05;;;6.72;;
82526;SDS011;72188;41.974;21.456;2024-01-10T07:04:21;10.63;;;5.18;;
82526;SDS011;72188;41.974;21.456;2024-01-10T07:06:49;5.50;;;4.10;;
82526;SDS011;72188;41.974;21.456;2024-01-10T07:09:15;8.98;;;5.70;;
82526;SDS011;72188;41.974;21.456;2024-01-10T07:11:48;12.57;;;7.18;;
82526;SDS011;72188;41.974;21.456;2024-01-10T07:14:14;10.75;;;6.15;;
82526;SDS011;72188;41.974;21.456;2024-01-10T07:16:41;12.25;;;6.43;;
82526;SDS011;72188;41.974;21.456;2024-01-10T07:19:11;13.57;;;6.80;;
82526;SDS011;72188;41.974;21.456;2024-01-10T07:21:40;12.68;;;7.30;;
82526;SDS011;72188;41.974;21.456;2024-01-10T07:24:07;9.00;;;5.70;;
82526;SDS011;72188;41.974;21.456;2024-01-10T07:26:37;12.80;;;7.82;;
82526;SDS011;72188;41.974;21.456;2024-01-10T07:29:03;13.48;;;7.72;;
82526;SDS011;72188;41.974;21.456;2024-01-10T07:31:30;12.35;;;6.95;;
82526;SDS011;72188;41.974;21.456;2024-01-10T07:33:56;16.02;;;8.77;;
82526;SDS011;72188;41.974;21.456;2024-01-10T07:36:25;11.65;;;7.82;;
82526;SDS011;72188;41.974;21.456;2024-01-10T07:38:52;13.00;;;7.70;;
82526;SDS011;72188;41.974;21.456;2024-01-10T07:41:18;15.32;;;9.40;;
82526;SDS011;72188;41.974;21.456;2024-01-10T07:43:46;13.27;;;6.72;;
82526;SDS011;72188;41.974;21.456;2024-01-10T07:46:12;12.15;;;7.97;;
82526;SDS011;72188;41.974;21.456;2024-01-10T07:48:38;12.70;;;8.23;;
82526;SDS011;72188;41.974;21.456;2024-01-10T07:51:04;17.17;;;8.73;;
82526;SDS011;72188;41.974;21.456;2024-01-10T07:53:30;17.95;;;10.32;;
82526;SDS011;72188;41.974;21.456;2024-01-10T07:55:56;16.52;;;9.68;;
82526;SDS011;72188;41.974;21.456;2024-01-10T07:58:23;17.17;;;9.18;;
82526;SDS011;72188;41.974;21.456;2024-01-10T08:00:49;17.52;;;8.65;;
82526;SDS011;72188;41.974;21.456;2024-01-10T08:03:16;17.83;;;9.90;;
82526;SDS011;72188;41.974;21.456;2024-01-10T08:05:42;22.10;;;10.30;;
82526;SDS011;72188;41.974;21.456;2024-01-10T08:08:08;16.55;;;9.50;;
82526;SDS011;72188;41.974;21.456;2024-01-10T08:10:34;17.13;;;9.40;;
82526;SDS011;72188;41.974;21.456;2024-01-10T08:13:00;16.33;;;10.00;;
82526;SDS011;72188;41.974;21.456;2024-01-10T08:15:26;9.27;;;6.28;;
82526;SDS011;72188;41.974;21.456;2024-01-10T08:17:55;17.90;;;11.32;;
82526;SDS011;72188;41.974;21.456;2024-01-10T08:20:24;25.42;;;14.73;;
82526;SDS011;72188;41.974;21.456;2024-01-10T08:22:50;16.42;;;7.03;;
82526;SDS011;72188;41.974;21.456;2024-01-10T08:25:16;21.45;;;10.75;;
82526;SDS011;72188;41.974;21.456;2024-01-10T08:27:43;20.38;;;9.18;;
82526;SDS011;72188;41.974;21.456;2024-01-10T08:30:10;15.93;;;8.82;;
82526;SDS011;72188;41.974;21.456;2024-01-10T08:32:36;26.80;;;11.07;;
82526;SDS011;72188;41.974;21.456;2024-01-10T08:35:03;27.33;;;11.73;;
82526;SDS011;72188;41.974;21.456;2024-01-10T08:37:30;20.60;;;9.75;;
82526;SDS011;72188;41.974;21.456;2024-01-10T08:39:56;16.48;;;9.10;;
82526;SDS011;72188;41.974;21.456;2024-01-10T08:42:23;22.15;;;9.40;;
82526;SDS011;72188;41.974;21.456;2024-01-10T08:44:49;26.20;;;12.13;;
82526;SDS011;72188;41.974;21.456;2024-01-10T08:47:15;23.98;;;12.02;;
82526;SDS011;72188;41.974;21.456;2024-01-10T08:49:41;22.50;;;10.98;;
82526;SDS011;72188;41.974;21.456;2024-01-10T08:52:07;16.45;;;8.45;;
82526;SDS011;72188;41.974;21.456;2024-01-10T08:54:34;11.60;;;6.47;;
82526;SDS011;72188;41.974;21.456;2024-01-10T08:57:00;20.10;;;10.32;;
82526;SDS011;72188;41.974;21.456;2024-01-10T08:59:26;12.35;;;7.28;;
82526;SDS011;72188;41.974;21.456;2024-01-10T09:01:53;12.43;;;7.13;;
82526;SDS011;72188;41.974;21.456;2024-01-10T09:04:19;13.32;;;8.10;;
82526;SDS011;72188;41.974;21.456;2024-01-10T09:06:45;13.60;;;8.07;;
82526;SDS011;72188;41.974;21.456;2024-01-10T09:09:12;14.90;;;8.02;;
82526;SDS011;72188;41.974;21.456;2024-01-10T09:11:38;16.80;;;9.93;;
82526;SDS011;72188;41.974;21.456;2024-01-10T09:14:04;11.88;;;7.45;;
82526;SDS011;72188;41.974;21.456;2024-01-10T09:16:30;11.77;;;8.23;;
82526;SDS011;72188;41.974;21.456;2024-01-10T09:18:56;10.85;;;7.75;;
82526;SDS011;72188;41.974;21.456;2024-01-10T09:21:24;15.18;;;8.82;;
82526;SDS011;72188;41.974;21.456;2024-01-10T09:23:51;24.17;;;10.30;;
82526;SDS011;72188;41.974;21.456;2024-01-10T09:26:18;14.20;;;9.38;;
82526;SDS011;72188;41.974;21.456;2024-01-10T09:28:44;11.05;;;6.72;;
82526;SDS011;72188;41.974;21.456;2024-01-10T09:31:10;16.90;;;9.38;;
82526;SDS011;72188;41.974;21.456;2024-01-10T09:33:36;22.92;;;12.05;;
82526;SDS011;72188;41.974;21.456;2024-01-10T09:36:02;8.25;;;5.47;;
82526;SDS011;72188;41.974;21.456;2024-01-10T09:38:28;15.43;;;8.95;;
82526;SDS011;72188;41.974;21.456;2024-01-10T09:40:59;17.00;;;9.27;;
82526;SDS011;72188;41.974;21.456;2024-01-10T09:43:31;19.95;;;10.02;;
82526;SDS011;72188;41.974;21.456;2024-01-10T09:45:58;12.45;;;6.85;;
82526;SDS011;72188;41.974;21.456;2024-01-10T09:48:26;15.32;;;9.25;;
82526;SDS011;72188;41.974;21.456;2024-01-10T09:50:52;14.52;;;9.70;;
82526;SDS011;72188;41.974;21.456;2024-01-10T09:53:27;18.23;;;10.23;;
82526;SDS011;72188;41.974;21.456;2024-01-10T09:55:55;16.17;;;9.10;;
82526;SDS011;72188;41.974;21.456;2024-01-10T09:58:25;17.55;;;10.50;;
82526;SDS011;72188;41.974;21.456;2024-01-10T10:00:51;16.05;;;10.00;;
82526;SDS011;72188;41.974;21.456;2024-01-10T10:03:17;17.15;;;10.88;;
82526;SDS011;72188;41.974;21.456;2024-01-10T10:05:44;19.27;;;9.48;;
82526;SDS011;72188;41.974;21.456;2024-01-10T10:08:10;14.23;;;9.65;;
82526;SDS011;72188;41.974;21.456;2024-01-10T10:10:37;11.10;;;7.55;;
82526;SDS011;72188;41.974;21.456;2024-01-10T10:13:09;16.15;;;8.35;;
82526;SDS011;72188;41.974;21.456;2024-01-10T10:15:38;13.80;;;8.48;;
82526;SDS011;72188;41.974;21.456;2024-01-10T10:18:04;17.75;;;10.90;;
82526;SDS011;72188;41.974;21.456;2024-01-10T10:20:31;18.10;;;11.68;;
82526;SDS011;72188;41.974;21.456;2024-01-10T10:25:29;11.75;;;7.10;;
82526;SDS011;72188;41.974;21.456;2024-01-10T10:27:56;17.38;;;10.60;;
82526;SDS011;72188;41.974;21.456;2024-01-10T10:30:22;22.42;;;10.50;;
82526;SDS011;72188;41.974;21.456;2024-01-10T10:32:49;16.75;;;11.00;;
82526;SDS011;72188;41.974;21.456;2024-01-10T10:35:15;19.17;;;12.55;;
82526;SDS011;72188;41.974;21.456;2024-01-10T10:37:41;19.08;;;11.02;;
82526;SDS011;72188;41.974;21.456;2024-01-10T10:40:07;24.58;;;12.45;;
82526;SDS011;72188;41.974;21.456;2024-01-10T10:42:34;21.70;;;12.50;;
82526;SDS011;72188;41.974;21.456;2024-01-10T10:45:04;21.42;;;11.57;;
82526;SDS011;72188;41.974;21.456;2024-01-10T10:47:34;21.83;;;12.88;;
82526;SDS011;72188;41.974;21.456;2024-01-10T10:50:02;17.45;;;11.80;;
82526;SDS011;72188;41.974;21.456;2024-01-10T10:52:29;18.50;;;11.82;;
82526;SDS011;72188;41.974;21.456;2024-01-10T10:54:56;24.08;;;12.30;;
82526;SDS011;72188;41.974;21.456;2024-01-10T10:57:27;28.60;;;12.27;;
82526;SDS011;72188;41.974;21.456;2024-01-10T10:59:53;21.13;;;12.38;;
82526;SDS011;72188;41.974;21.456;2024-01-10T11:02:22;21.10;;;12.32;;
82526;SDS011;72188;41.974;21.456;2024-01-10T11:04:54;18.48;;;11.70;;
82526;SDS011;72188;41.974;21.456;2024-01-10T11:07:20;19.85;;;13.13;;
82526;SDS011;72188;41.974;21.456;2024-01-10T11:09:46;18.15;;;11.95;;
82526;SDS011;72188;41.974;21.456;2024-01-10T11:23:04;21.40;;;13.45;;
82526;SDS011;72188;41.974;21.456;2024-01-10T11:25:34;20.55;;;12.80;;
82526;SDS011;72188;41.974;21.456;2024-01-10T11:28:06;27.85;;;16.17;;
82526;SDS011;72188;41.974;21.456;2024-01-10T11:30:36;22.52;;;12.52;;
82526;SDS011;72188;41.974;21.456;2024-01-10T11:38:42;23.40;;;13.75;;
82526;SDS011;72188;41.974;21.456;2024-01-10T11:41:11;20.48;;;12.57;;
82526;SDS011;72188;41.974;21.456;2024-01-10T11:43:38;22.02;;;13.82;;
82526;SDS011;72188;41.974;21.456;2024-01-10T11:46:05;23.27;;;15.85;;
82526;SDS011;72188;41.974;21.456;2024-01-10T11:48:32;16.38;;;9.98;;
82526;SDS011;72188;41.974;21.456;2024-01-10T11:50:58;24.73;;;13.63;;
82526;SDS011;72188;41.974;21.456;2024-01-10T11:53:38;21.10;;;12.50;;
82526;SDS011;72188;41.974;21.456;2024-01-10T11:56:11;22.73;;;13.75;;
82526;SDS011;72188;41.974;21.456;2024-01-10T11:58:52;14.40;;;9.73;;
82526;SDS011;72188;41.974;21.456;2024-01-10T12:01:18;19.23;;;10.18;;
82526;SDS011;72188;41.974;21.456;2024-01-10T12:03:45;19.25;;;9.02;;
82526;SDS011;72188;41.974;21.456;2024-01-10T12:06:13;22.15;;;11.02;;
82526;SDS011;72188;41.974;21.456;2024-01-10T12:08:40;17.80;;;10.52;;
82526;SDS011;72188;41.974;21.456;2024-01-10T12:11:06;20.42;;;12.05;;
82526;SDS011;72188;41.974;21.456;2024-01-10T12:13:33;12.63;;;8.48;;
82526;SDS011;72188;41.974;21.456;2024-01-10T12:15:59;14.68;;;8.43;;
82526;SDS011;72188;41.974;21.456;2024-01-10T12:18:26;32.45;;;17.50;;
82526;SDS011;72188;41.974;21.456;2024-01-10T12:20:52;16.20;;;10.77;;
82526;SDS011;72188;41.974;21.456;2024-01-10T12:23:18;12.55;;;9.07;;
82526;SDS011;72188;41.974;21.456;2024-01-10T12:25:44;26.10;;;15.52;;
82526;SDS011;72188;41.974;21.456;2024-01-10T12:28:15;35.00;;;19.77;;
82526;SDS011;72188;41.974;21.456;2024-01-10T12:30:41;28.55;;;17.13;;
82526;SDS011;72188;41.974;21.456;2024-01-10T12:33:10;17.83;;;12.23;;
82526;SDS011;72188;41.974;21.456;2024-01-10T12:35:37;15.68;;;9.95;;
82526;SDS011;72188;41.974;21.456;2024-01-10T12:38:06;28.33;;;16.52;;
82526;SDS011;72188;41.974;21.456;2024-01-10T12:40:32;16.60;;;9.93;;
82526;SDS011;72188;41.974;21.456;2024-01-10T12:43:02;16.80;;;10.57;;
82526;SDS011;72188;41.974;21.456;2024-01-10T12:45:29;15.90;;;9.10;;
82526;SDS011;72188;41.974;21.456;2024-01-10T12:47:55;12.15;;;8.23;;
82526;SDS011;72188;41.974;21.456;2024-01-10T12:50:21;14.10;;;9.23;;
82526;SDS011;72188;41.974;21.456;2024-01-10T12:52:47;15.30;;;9.50;;
82526;SDS011;72188;41.974;21.456;2024-01-10T12:55:14;18.83;;;10.77;;
82526;SDS011;72188;41.974;21.456;2024-01-10T12:57:40;16.40;;;9.85;;
82526;SDS011;72188;41.974;21.456;2024-01-10T13:00:07;28.15;;;16.40;;
82526;SDS011;72188;41.974;21.456;2024-01-10T13:02:33;32.00;;;17.70;;
82526;SDS011;72188;41.974;21.456;2024-01-10T13:05:02;30.45;;;16.67;;
82526;SDS011;72188;41.974;21.456;2024-01-10T13:07:28;28.85;;;16.90;;
82526;SDS011;72188;41.974;21.456;2024-01-10T13:12:22;24.70;;;14.13;;
82526;SDS011;72188;41.974;21.456;2024-01-10T13:14:48;19.05;;;12.65;;
82526;SDS011;72188;41.974;21.456;2024-01-10T13:17:15;21.65;;;14.02;;
82526;SDS011;72188;41.974;21.456;2024-01-10T13:19:41;27.10;;;16.20;;
82526;SDS011;72188;41.974;21.456;2024-01-10T13:22:13;26.23;;;13.75;;
82526;SDS011;72188;41.974;21.456;2024-01-10T13:24:41;34.88;;;16.80;;
82526;SDS011;72188;41.974;21.456;2024-01-10T13:27:07;34.63;;;20.42;;
82526;SDS011;72188;41.974;21.456;2024-01-10T13:29:35;31.63;;;18.45;;
82526;SDS011;72188;41.974;21.456;2024-01-10T13:32:05;28.80;;;17.95;;
82526;SDS011;72188;41.974;21.456;2024-01-10T13:34:31;29.08;;;18.13;;
82526;SDS011;72188;41.974;21.456;2024-01-10T13:36:58;31.17;;;17.90;;
82526;SDS011;72188;41.974;21.456;2024-01-10T13:39:24;30.02;;;17.23;;
82526;SDS011;72188;41.974;21.456;2024-01-10T13:41:50;29.55;;;17.50;;
82526;SDS011;72188;41.974;21.456;2024-01-10T13:44:16;27.73;;;16.02;;
82526;SDS011;72188;41.974;21.456;2024-01-10T13:46:42;26.13;;;15.40;;
82526;SDS011;72188;41.974;21.456;2024-01-10T13:49:08;31.45;;;17.13;;
82526;SDS011;72188;41.974;21.456;2024-01-10T13:51:36;24.50;;;13.30;;
82526;SDS011;72188;41.974;21.456;2024-01-10T13:54:02;29.23;;;16.00;;
82526;SDS011;72188;41.974;21.456;2024-01-10T13:56:28;29.08;;;16.83;;
82526;SDS011;72188;41.974;21.456;2024-01-10T13:58:55;36.45;;;19.80;;
82526;SDS011;72188;41.974;21.456;2024-01-10T14:01:22;29.73;;;17.95;;
82526;SDS011;72188;41.974;21.456;2024-01-10T14:03:48;21.85;;;12.18;;
82526;SDS011;72188;41.974;21.456;2024-01-10T14:06:14;29.55;;;17.23;;
82526;SDS011;72188;41.974;21.456;2024-01-10T14:08:40;33.60;;;19.50;;
82526;SDS011;72188;41.974;21.456;2024-01-10T14:11:13;25.90;;;15.10;;
82526;SDS011;72188;41.974;21.456;2024-01-10T14:13:39;35.97;;;20.17;;
82526;SDS011;72188;41.974;21.456;2024-01-10T14:16:05;29.02;;;16.08;;
82526;SDS011;72188;41.974;21.456;2024-01-10T14:18:31;36.85;;;17.83;;
82526;SDS011;72188;41.974;21.456;2024-01-10T14:20:58;32.53;;;19.08;;
82526;SDS011;72188;41.974;21.456;2024-01-10T14:23:24;50.45;;;26.08;;
82526;SDS011;72188;41.974;21.456;2024-01-10T14:25:50;44.85;;;23.63;;
82526;SDS011;72188;41.974;21.456;2024-01-10T14:28:18;24.73;;;15.98;;
82526;SDS011;72188;41.974;21.456;2024-01-10T14:30:46;33.05;;;18.58;;
82526;SDS011;72188;41.974;21.456;2024-01-10T14:33:12;30.45;;;19.98;;
82526;SDS011;72188;41.974;21.456;2024-01-10T14:35:39;28.95;;;16.88;;
82526;SDS011;72188;41.974;21.456;2024-01-10T14:38:05;30.48;;;18.60;;
82526;SDS011;72188;41.974;21.456;2024-01-10T14:40:32;31.08;;;19.45;;